Time;durP1;ratioP1;P1;durP2;ratioP2;P2;SDS_P1;SDS_P2;PMS_P1;PMS_P2;Temp;Humidity;BMP_temperature;BMP_pressure;BME280_temperature;BME280_humidity;BME280_pressure;Samples;Min_cycle;Max_cycle;Signal;HPM_P1;HPM_P2
2024/01/24 00:00:08;;;;;;;0.47;0.10;;;12.40;99.90;;;;;;4953167;28;20034;-74
2024/01/24 00:02:34;;;;;;;6.88;1.02;;;12.50;99.90;;;;;;4951562;28;20562;-72
2024/01/24 00:04:59;;;;;;;0.80;0.10;;;12.40;99.90;;;;;;4956925;28;20066;-73
2024/01/24 00:07:25;;;;;;;3.53;0.20;;;12.50;99.90;;;;;;4948371;28;20035;-72
2024/01/24 00:09:51;;;;;;;0.52;0.20;;;12.50;99.90;;;;;;4976247;28;20093;-74
2024/01/24 00:12:16;;;;;;;3.17;0.32;;;12.50;99.90;;;;;;4959512;28;20093;-73
2024/01/24 00:14:42;;;;;;;4.18;0.50;;;12.50;99.90;;;;;;4953156;28;20089;-74
2024/01/24 00:17:07;;;;;;;3.55;0.40;;;12.40;99.90;;;;;;4965044;28;20029;-74
2024/01/24 00:19:33;;;;;;;1.60;0.43;;;12.40;99.90;;;;;;4951767;28;20102;-75
2024/01/24 00:21:59;;;;;;;1.83;0.22;;;12.30;99.90;;;;;;4960373;28;20143;-73
2024/01/24 00:24:25;;;;;;;0.82;0.20;;;12.20;99.90;;;;;;4976429;28;20319;-72
2024/01/24 00:26:50;;;;;;;0.93;0.30;;;12.20;99.90;;;;;;4979851;28;20035;-72
2024/01/24 00:29:16;;;;;;;3.10;0.40;;;12.10;99.90;;;;;;4959424;28;20049;-75
2024/01/24 00:31:41;;;;;;;0.93;0.25;;;12.10;99.90;;;;;;4960532;28;20135;-74
2024/01/24 00:34:07;;;;;;;2.80;0.43;;;12.00;99.90;;;;;;4959238;28;20042;-73
2024/01/24 00:36:33;;;;;;;2.65;0.50;;;12.00;99.90;;;;;;4950824;28;20125;-76
2024/01/24 00:38:59;;;;;;;0.60;0.35;;;12.00;99.90;;;;;;4957364;28;20145;-76
2024/01/24 00:41:24;;;;;;;1.50;0.50;;;12.00;99.90;;;;;;4957409;28;20061;-70
2024/01/24 00:43:50;;;;;;;3.08;0.50;;;12.00;99.90;;;;;;4949851;28;20039;-74
2024/01/24 00:46:15;;;;;;;1.88;0.40;;;11.90;99.90;;;;;;4976272;28;20039;-76
2024/01/24 00:48:41;;;;;;;4.13;0.47;;;11.90;99.90;;;;;;4960732;28;20038;-75
2024/01/24 00:51:06;;;;;;;3.22;0.43;;;11.90;99.90;;;;;;4964094;28;20122;-74
2024/01/24 00:53:35;;;;;;;3.03;0.50;;;11.90;99.90;;;;;;4975542;28;20045;-75
2024/01/24 00:56:00;;;;;;;3.90;0.65;;;11.90;99.90;;;;;;4959623;28;20643;-72
2024/01/24 00:58:26;;;;;;;4.35;0.55;;;11.90;99.90;;;;;;4956250;28;20031;-75
2024/01/24 01:00:51;;;;;;;3.13;0.45;;;11.90;99.90;;;;;;4953700;28;20146;-76
2024/01/24 01:03:17;;;;;;;2.15;0.50;;;11.90;99.90;;;;;;4964434;28;20125;-74
2024/01/24 01:05:43;;;;;;;1.98;0.40;;;11.90;99.90;;;;;;4959482;28;20137;-75
2024/01/24 01:08:08;;;;;;;4.50;0.93;;;11.90;99.90;;;;;;4976273;28;20115;-76
2024/01/24 01:10:34;;;;;;;1.63;0.45;;;11.80;99.90;;;;;;4957459;28;20498;-75
2024/01/24 01:12:59;;;;;;;1.38;0.30;;;11.90;99.90;;;;;;4971514;28;20502;-73
2024/01/24 01:15:25;;;;;;;1.25;0.28;;;11.90;99.90;;;;;;4962138;28;20486;-75
2024/01/24 01:17:51;;;;;;;0.95;0.20;;;11.90;99.90;;;;;;4978466;28;20035;-74
2024/01/24 01:20:20;;;;;;;0.70;0.20;;;11.90;99.90;;;;;;4971806;28;20041;-74
2024/01/24 01:22:46;;;;;;;0.82;0.17;;;11.90;99.90;;;;;;4958891;28;20621;-74
2024/01/24 01:25:12;;;;;;;1.23;0.30;;;11.90;99.90;;;;;;4957664;28;20031;-74
2024/01/24 01:27:37;;;;;;;1.48;0.22;;;11.90;99.90;;;;;;4961376;28;20106;-76
2024/01/24 01:30:04;;;;;;;0.70;0.10;;;11.90;99.90;;;;;;4967327;28;20491;-75
2024/01/24 01:32:29;;;;;;;3.13;0.47;;;11.90;99.90;;;;;;4950004;28;20118;-74
2024/01/24 01:34:55;;;;;;;4.82;0.50;;;11.90;99.90;;;;;;4959130;28;20126;-74
2024/01/24 01:37:23;;;;;;;4.57;0.52;;;11.90;99.90;;;;;;4953322;28;20097;-73
2024/01/24 01:39:49;;;;;;;5.47;1.05;;;11.90;99.90;;;;;;4959629;28;20034;-75
2024/01/24 01:42:15;;;;;;;0.50;0.28;;;11.90;99.90;;;;;;4949785;28;20045;-74
2024/01/24 01:44:46;;;;;;;2.25;0.40;;;11.90;99.90;;;;;;4978954;28;20039;-74
2024/01/24 01:47:13;;;;;;;3.80;0.73;;;11.90;99.90;;;;;;4971163;28;20034;-75
2024/01/24 01:49:39;;;;;;;4.15;0.63;;;12.00;99.90;;;;;;4962903;28;20475;-75
2024/01/24 01:52:05;;;;;;;2.15;0.50;;;11.90;99.90;;;;;;4950289;28;20062;-75
2024/01/24 01:54:31;;;;;;;13.85;1.45;;;11.90;99.90;;;;;;4970657;28;20499;-74
2024/01/24 01:56:57;;;;;;;5.82;0.60;;;11.90;99.90;;;;;;4964261;28;20047;-74
2024/01/24 01:59:24;;;;;;;4.82;1.10;;;12.00;99.90;;;;;;4958332;28;20031;-74
2024/01/24 02:01:52;;;;;;;5.72;0.40;;;11.90;99.90;;;;;;4985135;28;20046;-75
2024/01/24 02:04:18;;;;;;;2.38;0.50;;;11.90;99.90;;;;;;4960539;28;20030;-74
2024/01/24 02:06:43;;;;;;;7.72;1.85;;;11.90;99.90;;;;;;4978036;28;20046;-76
2024/01/24 02:09:10;;;;;;;4.28;0.60;;;11.90;99.90;;;;;;4959830;28;20057;-76
2024/01/24 02:11:35;;;;;;;5.18;0.45;;;11.90;99.90;;;;;;4973560;28;20031;-73
2024/01/24 02:14:01;;;;;;;4.28;0.52;;;12.00;99.90;;;;;;4954718;28;20050;-74
2024/01/24 02:16:27;;;;;;;3.38;0.52;;;12.00;99.90;;;;;;4970316;28;20069;-73
2024/01/24 02:18:53;;;;;;;5.60;0.60;;;12.00;99.90;;;;;;4945495;28;20043;-74
2024/01/24 02:21:18;;;;;;;2.22;0.50;;;12.00;99.90;;;;;;4968179;28;20034;-73
2024/01/24 02:23:45;;;;;;;3.08;0.40;;;12.00;99.90;;;;;;4968699;28;20045;-74
2024/01/24 02:26:11;;;;;;;7.35;0.85;;;12.00;99.90;;;;;;4966041;28;20054;-72
2024/01/24 02:28:36;;;;;;;2.30;0.30;;;12.00;99.90;;;;;;4952109;28;20050;-73
2024/01/24 02:31:02;;;;;;;7.13;1.23;;;12.00;99.90;;;;;;4977017;28;20039;-74
2024/01/24 02:33:27;;;;;;;3.75;1.08;;;12.00;99.90;;;;;;4952706;28;20035;-73
2024/01/24 02:35:53;;;;;;;4.30;0.82;;;12.00;99.90;;;;;;4956273;28;20039;-75
2024/01/24 02:38:18;;;;;;;4.32;0.73;;;12.00;99.90;;;;;;4954990;28;20039;-74
2024/01/24 02:40:44;;;;;;;6.07;0.65;;;12.00;99.90;;;;;;4956136;28;20046;-75
2024/01/24 02:43:09;;;;;;;2.33;0.55;;;12.00;99.90;;;;;;4950796;28;20027;-74
2024/01/24 02:45:35;;;;;;;3.03;0.55;;;12.00;99.90;;;;;;4970592;28;20035;-71
2024/01/24 02:48:00;;;;;;;7.13;1.08;;;11.90;99.90;;;;;;4957015;28;20045;-74
2024/01/24 02:50:26;;;;;;;5.20;0.70;;;11.90;99.90;;;;;;4956604;28;20402;-73
2024/01/24 02:52:52;;;;;;;4.63;0.50;;;11.90;99.90;;;;;;4955140;28;20546;-73
2024/01/24 02:55:17;;;;;;;12.75;0.98;;;11.90;99.90;;;;;;4949043;28;20038;-75
2024/01/24 02:57:47;;;;;;;6.85;0.65;;;11.80;99.90;;;;;;4971585;28;20043;-72
2024/01/24 03:00:13;;;;;;;20.17;1.75;;;11.80;99.90;;;;;;4958117;28;20035;-75
2024/01/24 03:02:39;;;;;;;3.95;0.80;;;11.80;99.90;;;;;;4950271;28;20073;-75
2024/01/24 03:05:06;;;;;;;10.35;0.90;;;11.80;99.90;;;;;;4964113;28;20041;-74
2024/01/24 03:07:31;;;;;;;7.22;0.80;;;11.80;99.90;;;;;;4969456;28;20039;-72
2024/01/24 03:09:57;;;;;;;8.18;0.77;;;11.80;99.90;;;;;;4957490;28;20584;-74
2024/01/24 03:12:23;;;;;;;16.90;1.90;;;11.80;99.90;;;;;;4949505;28;20514;-74
2024/01/24 03:14:48;;;;;;;5.75;0.63;;;11.70;99.90;;;;;;4950652;28;20050;-74
2024/01/24 03:17:14;;;;;;;11.15;0.98;;;11.80;99.90;;;;;;4952601;28;20070;-74
2024/01/24 03:19:39;;;;;;;9.43;0.90;;;11.70;99.90;;;;;;4963720;28;20518;-74
2024/01/24 03:22:05;;;;;;;4.20;0.95;;;11.70;99.90;;;;;;4948530;28;20534;-75
2024/01/24 03:24:30;;;;;;;9.73;1.65;;;11.70;99.90;;;;;;4970310;28;20101;-73
2024/01/24 03:26:56;;;;;;;5.93;1.00;;;11.60;99.90;;;;;;4965304;28;20101;-73
2024/01/24 03:29:21;;;;;;;8.32;1.42;;;11.70;99.90;;;;;;4964831;28;20035;-73
2024/01/24 03:31:47;;;;;;;10.68;1.10;;;11.60;99.90;;;;;;4965608;28;20078;-73
2024/01/24 03:34:13;;;;;;;5.70;0.82;;;11.60;99.90;;;;;;4947312;28;20042;-72
2024/01/24 03:36:38;;;;;;;6.65;0.95;;;11.60;99.90;;;;;;4967340;28;20114;-73
2024/01/24 03:39:04;;;;;;;6.72;1.05;;;11.50;99.90;;;;;;4952621;28;20466;-73
2024/01/24 03:41:30;;;;;;;8.85;1.88;;;11.50;99.90;;;;;;4971338;28;20070;-74
2024/01/24 03:43:55;;;;;;;11.82;1.40;;;11.50;99.90;;;;;;4948460;28;20557;-73
2024/01/24 03:46:21;;;;;;;15.15;3.10;;;11.40;99.90;;;;;;4973301;28;20115;-73
2024/01/24 03:48:47;;;;;;;13.10;3.08;;;11.40;99.90;;;;;;4964539;28;20046;-74
2024/01/24 03:51:13;;;;;;;13.85;1.80;;;11.30;99.90;;;;;;4971854;28;20395;-73
2024/01/24 03:53:38;;;;;;;12.02;2.00;;;11.30;99.90;;;;;;4971339;28;20479;-72
2024/01/24 03:56:06;;;;;;;11.02;2.28;;;11.30;99.90;;;;;;4976686;28;20058;-73
2024/01/24 03:58:31;;;;;;;11.50;2.70;;;11.20;99.90;;;;;;4971721;28;20066;-75
2024/01/24 04:00:57;;;;;;;21.70;2.65;;;11.20;99.90;;;;;;4955916;28;20063;-73
2024/01/24 04:03:22;;;;;;;9.90;2.05;;;11.10;99.90;;;;;;4970999;28;20023;-74
2024/01/24 04:05:48;;;;;;;8.63;2.47;;;11.10;99.90;;;;;;4973431;28;20042;-74
2024/01/24 04:08:13;;;;;;;13.68;1.88;;;11.00;99.90;;;;;;4971180;28;20027;-73
2024/01/24 04:10:39;;;;;;;10.38;2.03;;;10.90;99.90;;;;;;4972448;28;20034;-73
2024/01/24 04:13:05;;;;;;;16.30;3.50;;;10.90;99.90;;;;;;4970245;28;20031;-74
2024/01/24 04:15:30;;;;;;;13.07;2.22;;;10.90;99.90;;;;;;4970212;28;20037;-73
2024/01/24 04:17:57;;;;;;;13.52;3.33;;;10.90;99.90;;;;;;4952547;28;20046;-74
2024/01/24 04:20:23;;;;;;;7.05;2.03;;;10.90;99.90;;;;;;4952716;28;20658;-73
2024/01/24 04:22:48;;;;;;;18.48;3.33;;;10.80;99.90;;;;;;4970857;28;20052;-73
2024/01/24 04:25:14;;;;;;;14.60;2.22;;;10.80;99.90;;;;;;4960342;28;20023;-73
2024/01/24 04:27:40;;;;;;;16.70;3.10;;;10.80;99.90;;;;;;4953897;28;20023;-72
2024/01/24 04:30:06;;;;;;;18.27;3.45;;;10.80;99.90;;;;;;4971940;28;20053;-72
2024/01/24 04:32:31;;;;;;;22.27;2.88;;;10.80;99.90;;;;;;4953032;28;20494;-73
2024/01/24 04:34:57;;;;;;;18.33;2.95;;;10.70;99.90;;;;;;4970670;28;20039;-72
2024/01/24 04:37:23;;;;;;;26.67;3.88;;;10.80;99.90;;;;;;4969409;28;20034;-72
2024/01/24 04:39:49;;;;;;;22.80;3.90;;;10.70;99.90;;;;;;4957795;28;20042;-73
2024/01/24 04:42:14;;;;;;;25.65;3.55;;;10.70;99.90;;;;;;4963599;28;20038;-73
2024/01/24 04:44:40;;;;;;;20.25;3.47;;;10.70;99.90;;;;;;4977884;28;20037;-72
2024/01/24 04:47:06;;;;;;;24.50;3.70;;;10.60;99.90;;;;;;4959532;28;20042;-72
2024/01/24 04:49:31;;;;;;;17.60;2.03;;;10.60;99.90;;;;;;4967055;28;20045;-73
2024/01/24 04:51:57;;;;;;;13.77;2.67;;;10.60;99.90;;;;;;4976965;28;20069;-73
2024/01/24 04:54:22;;;;;;;21.38;3.15;;;10.70;99.90;;;;;;4957556;28;20118;-72
2024/01/24 04:56:48;;;;;;;16.27;2.00;;;10.70;99.90;;;;;;4955474;28;20031;-75
2024/01/24 04:59:15;;;;;;;16.63;3.10;;;10.60;99.90;;;;;;4979807;28;20109;-72
2024/01/24 05:01:41;;;;;;;26.17;3.58;;;10.60;99.90;;;;;;4968579;28;20039;-74
2024/01/24 05:04:07;;;;;;;19.13;3.38;;;10.60;99.90;;;;;;4975968;28;20117;-74
2024/01/24 05:06:33;;;;;;;28.45;4.22;;;10.60;99.90;;;;;;4972627;28;20074;-73
2024/01/24 05:08:58;;;;;;;33.58;3.70;;;10.60;99.90;;;;;;4966033;28;20046;-74
2024/01/24 05:11:24;;;;;;;19.65;3.75;;;10.50;99.90;;;;;;4970919;28;20163;-74
2024/01/24 05:13:49;;;;;;;24.42;3.70;;;10.50;99.90;;;;;;4957928;28;20057;-73
2024/01/24 05:16:15;;;;;;;16.20;3.90;;;10.50;99.90;;;;;;4976972;28;20380;-73
2024/01/24 05:18:41;;;;;;;19.15;4.28;;;10.60;99.90;;;;;;4978433;28;20502;-74
2024/01/24 05:21:06;;;;;;;18.73;3.08;;;10.50;99.90;;;;;;4986044;28;20065;-74
2024/01/24 05:23:32;;;;;;;20.08;3.83;;;10.50;99.90;;;;;;4982170;28;20046;-73
2024/01/24 05:25:58;;;;;;;30.08;4.65;;;10.50;99.90;;;;;;4988326;28;20109;-74
2024/01/24 05:28:24;;;;;;;21.90;4.25;;;10.50;99.90;;;;;;4971003;28;20549;-74
2024/01/24 05:30:49;;;;;;;29.30;3.63;;;10.50;99.90;;;;;;4971534;28;20134;-74
2024/01/24 05:33:15;;;;;;;26.85;3.20;;;10.50;99.90;;;;;;4968381;28;20082;-73
2024/01/24 05:35:41;;;;;;;24.13;4.28;;;10.50;99.90;;;;;;4983012;28;20037;-74
2024/01/24 05:38:06;;;;;;;25.27;3.92;;;10.50;99.90;;;;;;4956795;28;20077;-75
2024/01/24 05:40:32;;;;;;;18.60;3.53;;;10.50;99.90;;;;;;4970361;28;20094;-74
2024/01/24 05:42:57;;;;;;;30.65;5.05;;;10.50;99.90;;;;;;4974288;28;20253;-74
2024/01/24 05:45:23;;;;;;;27.70;3.55;;;10.50;99.90;;;;;;4969593;28;20047;-74
2024/01/24 05:47:49;;;;;;;30.58;3.75;;;10.50;99.90;;;;;;4951013;28;20510;-74
2024/01/24 05:50:15;;;;;;;22.90;2.88;;;10.40;99.90;;;;;;4966243;28;20035;-73
2024/01/24 05:52:41;;;;;;;36.78;5.43;;;10.40;99.90;;;;;;4949533;28;20031;-74
2024/01/24 05:55:09;;;;;;;35.47;4.53;;;10.40;99.90;;;;;;4960120;28;20038;-74
2024/01/24 05:57:35;;;;;;;26.42;4.10;;;10.40;99.90;;;;;;4970185;28;20036;-73
2024/01/24 06:00:01;;;;;;;30.65;4.20;;;10.30;99.90;;;;;;4978721;28;20030;-74
2024/01/24 06:02:26;;;;;;;24.27;3.97;;;10.30;99.90;;;;;;4962522;28;20046;-74
2024/01/24 06:04:52;;;;;;;30.73;4.68;;;10.30;99.90;;;;;;4978498;28;20041;-74
2024/01/24 06:07:18;;;;;;;24.83;5.07;;;10.30;99.90;;;;;;4976534;28;20047;-73
2024/01/24 06:09:44;;;;;;;35.45;4.07;;;10.20;99.90;;;;;;4975336;28;20125;-74
2024/01/24 06:12:09;;;;;;;30.67;4.72;;;10.20;99.90;;;;;;4965747;28;20133;-73
2024/01/24 06:14:35;;;;;;;26.33;4.00;;;10.10;99.90;;;;;;4964193;28;20030;-74
2024/01/24 06:17:01;;;;;;;29.02;4.32;;;10.20;99.90;;;;;;4975086;28;20112;-74
2024/01/24 06:19:26;;;;;;;29.10;3.72;;;10.10;99.90;;;;;;4967663;28;20042;-74
2024/01/24 06:21:52;;;;;;;27.30;3.03;;;10.10;99.90;;;;;;4979464;28;20626;-75
2024/01/24 06:24:17;;;;;;;22.90;5.85;;;10.10;99.90;;;;;;4972184;28;20039;-72
2024/01/24 06:26:43;;;;;;;26.08;4.95;;;10.10;99.90;;;;;;4972698;28;20045;-73
2024/01/24 06:29:08;;;;;;;18.65;3.35;;;10.00;99.90;;;;;;4975856;28;20042;-72
2024/01/24 06:31:34;;;;;;;33.88;5.13;;;10.00;99.90;;;;;;4959506;28;20030;-73
2024/01/24 06:34:00;;;;;;;26.15;4.03;;;10.00;99.90;;;;;;4968192;28;20093;-72
2024/01/24 06:36:26;;;;;;;28.83;5.05;;;9.90;99.90;;;;;;4951063;28;20041;-73
2024/01/24 06:38:51;;;;;;;29.63;4.22;;;10.00;99.90;;;;;;4957432;28;20030;-74
2024/01/24 06:41:17;;;;;;;35.13;5.32;;;9.90;99.90;;;;;;4974729;28;20078;-74
2024/01/24 06:43:42;;;;;;;42.15;5.63;;;9.80;99.90;;;;;;4972151;28;20031;-72
2024/01/24 06:46:08;;;;;;;32.58;3.92;;;9.80;99.90;;;;;;4966676;28;20023;-73
2024/01/24 06:48:34;;;;;;;34.13;4.90;;;9.80;99.90;;;;;;4983679;28;20030;-73
2024/01/24 06:51:00;;;;;;;35.38;4.80;;;9.70;99.90;;;;;;4958635;28;20514;-73
2024/01/24 06:53:26;;;;;;;32.40;4.90;;;9.70;99.90;;;;;;4951937;28;20023;-73
2024/01/24 06:55:52;;;;;;;29.52;4.95;;;9.70;99.90;;;;;;4957175;28;20033;-73
2024/01/24 06:58:17;;;;;;;35.90;5.43;;;9.60;99.90;;;;;;4974320;28;20030;-73
2024/01/24 07:00:43;;;;;;;30.10;6.55;;;9.60;99.90;;;;;;4953810;28;20046;-73
2024/01/24 07:03:09;;;;;;;32.05;5.97;;;9.70;99.90;;;;;;4955924;28;20049;-74
2024/01/24 07:05:35;;;;;;;27.23;4.30;;;9.60;99.90;;;;;;4956912;28;20070;-74
2024/01/24 07:08:00;;;;;;;27.95;6.68;;;9.60;99.90;;;;;;4948207;28;20061;-74
2024/01/24 07:10:26;;;;;;;31.63;4.80;;;9.60;99.90;;;;;;4957382;28;20402;-74
2024/01/24 07:12:52;;;;;;;26.13;4.32;;;9.50;99.90;;;;;;4956689;28;20486;-74
2024/01/24 07:15:18;;;;;;;29.88;5.97;;;9.50;99.90;;;;;;4957608;28;20125;-73
2024/01/24 07:17:43;;;;;;;34.88;5.70;;;9.40;99.90;;;;;;4975227;28;20062;-74
2024/01/24 07:20:09;;;;;;;26.05;4.32;;;9.40;99.90;;;;;;4975709;28;20042;-74
2024/01/24 07:22:35;;;;;;;24.02;4.70;;;9.40;99.90;;;;;;4964379;28;20082;-74
2024/01/24 07:25:01;;;;;;;27.25;4.85;;;9.40;99.90;;;;;;4958271;28;20031;-76
2024/01/24 07:27:29;;;;;;;23.35;3.92;;;9.40;99.90;;;;;;4957305;28;20399;-76
2024/01/24 07:29:54;;;;;;;35.67;5.90;;;9.40;99.90;;;;;;4957754;28;20050;-75
2024/01/24 07:32:20;;;;;;;30.52;5.22;;;9.40;99.90;;;;;;4957714;28;20383;-74
2024/01/24 07:34:45;;;;;;;39.33;5.03;;;9.30;99.90;;;;;;4968883;28;20398;-75
2024/01/24 07:37:11;;;;;;;40.35;7.38;;;9.30;99.90;;;;;;4950127;28;20046;-74
2024/01/24 07:39:36;;;;;;;19.63;4.32;;;9.40;99.90;;;;;;4957665;28;20034;-74
2024/01/24 07:42:02;;;;;;;19.65;4.28;;;9.40;99.90;;;;;;4949009;28;20047;-74
2024/01/24 07:44:27;;;;;;;25.00;3.78;;;9.40;99.90;;;;;;4970180;28;20046;-75
2024/01/24 07:46:53;;;;;;;22.30;5.15;;;9.40;99.90;;;;;;4954001;28;20046;-74
2024/01/24 07:49:19;;;;;;;28.60;4.35;;;9.40;99.90;;;;;;4949042;28;20406;-75
2024/01/24 07:51:46;;;;;;;42.05;5.50;;;9.40;99.90;;;;;;4957542;28;20100;-74
2024/01/24 07:54:12;;;;;;;18.95;4.22;;;9.40;99.90;;;;;;4955506;28;20410;-73
2024/01/24 07:56:38;;;;;;;29.70;4.32;;;9.40;99.90;;;;;;4981809;28;20027;-73
2024/01/24 07:59:05;;;;;;;32.92;5.32;;;9.40;99.90;;;;;;4980948;28;20124;-74
2024/01/24 08:01:31;;;;;;;22.20;3.70;;;9.40;99.90;;;;;;4976173;28;20120;-73
2024/01/24 08:03:58;;;;;;;36.45;4.68;;;9.40;99.90;;;;;;4955685;28;20093;-73
2024/01/24 08:06:24;;;;;;;26.23;6.45;;;9.40;99.90;;;;;;4949083;28;20495;-74
2024/01/24 08:08:50;;;;;;;32.35;5.63;;;9.40;99.90;;;;;;4985103;28;20038;-72
2024/01/24 08:11:16;;;;;;;16.95;3.95;;;9.40;99.90;;;;;;4947994;28;20043;-74
2024/01/24 08:13:42;;;;;;;19.67;4.18;;;9.50;99.90;;;;;;4977082;28;20427;-74
2024/01/24 08:16:08;;;;;;;22.98;4.78;;;9.50;99.90;;;;;;4984839;28;20112;-74
2024/01/24 08:18:33;;;;;;;25.77;4.75;;;9.40;99.90;;;;;;4959639;28;20030;-74
2024/01/24 08:20:59;;;;;;;31.77;4.05;;;9.40;99.90;;;;;;4954851;28;20384;-74
2024/01/24 08:23:25;;;;;;;30.65;4.78;;;9.40;99.90;;;;;;4972704;28;20031;-73
2024/01/24 08:25:50;;;;;;;26.90;4.53;;;9.50;99.90;;;;;;4970878;28;20045;-71
2024/01/24 08:28:16;;;;;;;14.23;3.67;;;9.50;99.90;;;;;;4968852;28;20380;-74
2024/01/24 08:30:42;;;;;;;29.35;5.53;;;9.50;99.90;;;;;;4949383;28;20035;-76
2024/01/24 08:33:07;;;;;;;28.85;5.07;;;9.50;99.90;;;;;;4959536;28;20498;-74
2024/01/24 08:35:35;;;;;;;31.63;3.80;;;9.60;99.90;;;;;;4980760;28;20518;-74
2024/01/24 08:38:01;;;;;;;28.67;4.63;;;9.60;99.90;;;;;;4966177;28;20027;-74
2024/01/24 08:40:27;;;;;;;28.45;3.67;;;9.70;99.90;;;;;;4961855;28;20029;-73
2024/01/24 08:42:52;;;;;;;31.27;5.55;;;9.70;99.90;;;;;;4982144;28;20046;-73
2024/01/24 08:45:18;;;;;;;27.95;3.92;;;9.70;99.90;;;;;;4978975;28;20144;-72
2024/01/24 08:47:43;;;;;;;35.28;5.85;;;9.70;99.90;;;;;;4952001;28;20069;-72
2024/01/24 08:50:09;;;;;;;22.23;3.88;;;9.70;99.90;;;;;;4958833;28;20038;-72
2024/01/24 08:52:35;;;;;;;28.05;5.75;;;9.70;99.90;;;;;;4982662;28;20109;-73
2024/01/24 08:55:01;;;;;;;26.90;4.05;;;9.80;99.90;;;;;;4963600;28;20069;-72
2024/01/24 08:57:26;;;;;;;20.25;3.05;;;9.80;99.90;;;;;;4972134;28;20046;-72
2024/01/24 08:59:53;;;;;;;29.40;7.10;;;9.80;99.90;;;;;;4983278;28;20041;-72
2024/01/24 09:02:18;;;;;;;27.25;4.30;;;9.80;99.90;;;;;;4969918;28;20189;-71
2024/01/24 09:04:46;;;;;;;26.85;4.82;;;9.80;99.90;;;;;;4979730;28;20058;-73
2024/01/24 09:07:14;;;;;;;30.15;4.53;;;9.90;99.90;;;;;;4959079;28;20031;-72
2024/01/24 09:09:40;;;;;;;34.20;5.57;;;9.80;99.90;;;;;;4954312;28;20380;-72
2024/01/24 09:12:05;;;;;;;45.88;5.75;;;9.90;99.90;;;;;;4963055;28;20069;-74
2024/01/24 09:14:31;;;;;;;30.92;4.55;;;9.90;99.90;;;;;;4980533;28;20049;-72
2024/01/24 09:16:57;;;;;;;29.73;4.97;;;10.00;99.90;;;;;;4968357;28;20035;-72
2024/01/24 09:19:23;;;;;;;23.50;3.70;;;10.00;99.90;;;;;;4975779;28;20088;-72
2024/01/24 09:21:49;;;;;;;30.05;5.00;;;10.10;99.90;;;;;;4955075;28;20513;-72
2024/01/24 09:24:14;;;;;;;27.60;5.25;;;10.10;99.90;;;;;;4970037;28;20045;-75
2024/01/24 09:26:40;;;;;;;24.98;4.88;;;10.10;99.90;;;;;;4987928;28;20026;-73
2024/01/24 09:29:05;;;;;;;31.08;3.42;;;10.10;99.90;;;;;;4973110;28;20027;-74
2024/01/24 09:31:31;;;;;;;32.90;3.65;;;10.10;99.90;;;;;;4969326;28;20046;-72
2024/01/24 09:33:56;;;;;;;19.75;3.80;;;10.10;99.90;;;;;;4970120;28;20406;-73
2024/01/24 09:36:23;;;;;;;27.17;4.38;;;10.10;99.90;;;;;;4970996;28;20034;-72
2024/01/24 09:38:49;;;;;;;28.45;5.53;;;10.10;99.90;;;;;;4970539;28;20116;-74
2024/01/24 09:41:20;;;;;;;30.23;4.10;;;10.20;99.90;;;;;;4949966;28;20094;-74
2024/01/24 09:43:47;;;;;;;24.42;3.35;;;10.10;99.90;;;;;;4976161;28;20684;-74
2024/01/24 09:46:18;;;;;;;19.95;3.47;;;10.20;99.90;;;;;;4955200;28;20121;-71
2024/01/24 09:48:44;;;;;;;;;;;10.30;99.90;;;;;;4954351;28;20027;-72
2024/01/24 09:51:10;;;;;;;29.10;4.65;;;10.30;99.90;;;;;;4972225;28;19918;-74
2024/01/24 09:53:38;;;;;;;24.58;4.40;;;10.40;99.90;;;;;;4952032;28;20041;-72
2024/01/24 09:56:04;;;;;;;23.75;4.35;;;10.50;99.90;;;;;;4959286;28;20407;-73
2024/01/24 09:58:29;;;;;;;20.45;3.30;;;10.50;99.90;;;;;;4959151;28;20034;-73
2024/01/24 10:00:57;;;;;;;33.08;4.88;;;10.60;99.90;;;;;;4989271;28;20038;-73
2024/01/24 10:03:24;;;;;;;29.92;4.95;;;10.60;99.90;;;;;;4962029;28;20035;-72
2024/01/24 10:05:50;;;;;;;28.73;4.50;;;10.70;99.90;;;;;;4950682;28;20038;-73
2024/01/24 10:08:17;;;;;;;25.48;5.25;;;10.70;99.90;;;;;;4982293;28;20544;-73
2024/01/24 10:10:44;;;;;;;28.20;4.18;;;10.70;99.90;;;;;;4979701;28;20035;-72
2024/01/24 10:13:10;;;;;;;25.15;5.35;;;10.80;99.90;;;;;;4969285;28;20093;-72
2024/01/24 10:15:37;;;;;;;20.33;4.85;;;10.90;99.90;;;;;;4969463;28;20042;-72
2024/01/24 10:18:03;;;;;;;25.45;4.97;;;10.90;99.90;;;;;;4987402;28;20057;-73
2024/01/24 10:20:29;;;;;;;26.48;4.18;;;10.90;99.90;;;;;;4960395;28;20018;-74
2024/01/24 10:22:54;;;;;;;29.42;4.63;;;11.00;99.90;;;;;;4967107;28;20082;-73
2024/01/24 10:25:21;;;;;;;21.75;3.22;;;11.00;99.90;;;;;;4965305;28;20050;-74
2024/01/24 10:27:47;;;;;;;29.00;3.60;;;11.00;99.90;;;;;;4947370;28;20090;-72
2024/01/24 10:30:14;;;;;;;28.83;4.90;;;11.00;99.90;;;;;;4973192;28;20034;-73
2024/01/24 10:32:50;;;;;;;17.15;3.72;;;11.00;99.90;;;;;;4959556;28;20027;-73
2024/01/24 10:35:16;;;;;;;21.80;3.45;;;11.00;99.90;;;;;;4981284;28;20038;-72
2024/01/24 10:37:44;;;;;;;21.55;3.35;;;10.90;99.90;;;;;;4977162;28;20857;-73
2024/01/24 10:40:14;;;;;;;28.38;4.20;;;10.90;99.90;;;;;;4980482;28;20065;-73
2024/01/24 10:42:41;;;;;;;27.05;4.90;;;10.80;99.90;;;;;;4956457;28;20050;-71
2024/01/24 10:45:08;;;;;;;19.80;4.18;;;10.70;99.90;;;;;;4954105;28;20555;-71
2024/01/24 10:47:34;;;;;;;45.88;5.22;;;10.70;99.90;;;;;;4969061;28;20042;-73
2024/01/24 10:50:04;;;;;;;28.95;4.00;;;10.70;99.90;;;;;;4967422;28;20050;-72
2024/01/24 10:52:32;;;;;;;24.42;4.47;;;10.70;99.90;;;;;;4974180;28;20047;-72
2024/01/24 10:55:06;;;;;;;22.58;3.55;;;10.70;99.90;;;;;;4945585;28;20122;-73
2024/01/24 10:57:35;;;;;;;24.73;4.03;;;10.70;99.90;;;;;;4969413;28;20395;-74
2024/01/24 11:00:05;;;;;;;23.65;3.22;;;10.60;99.90;;;;;;4960456;28;20038;-74
2024/01/24 11:02:34;;;;;;;23.98;3.15;;;10.60;99.90;;;;;;4956783;28;20745;-73
2024/01/24 11:05:03;;;;;;;25.65;4.72;;;10.60;99.90;;;;;;4949419;28;20117;-73
2024/01/24 11:07:37;;;;;;;23.70;4.35;;;10.60;99.90;;;;;;4948608;28;20053;-73
2024/01/24 11:10:18;;;;;;;20.08;3.85;;;10.60;99.90;;;;;;4942722;28;20510;-73
2024/01/24 11:12:43;;;;;;;;;;;10.70;99.90;;;;;;4964956;28;20035;-73
2024/01/24 11:15:13;;;;;;;25.13;3.22;;;10.80;99.90;;;;;;4978629;28;19933;-73
2024/01/24 11:17:41;;;;;;;28.80;4.78;;;10.90;99.90;;;;;;4975469;28;20133;-73
2024/01/24 11:20:07;;;;;;;19.58;3.55;;;11.00;99.90;;;;;;4960306;28;20049;-73
2024/01/24 11:22:34;;;;;;;25.63;4.65;;;10.90;99.90;;;;;;4956714;28;20045;-73
2024/01/24 11:24:59;;;;;;;19.15;3.47;;;10.90;99.90;;;;;;4967279;28;20134;-74
2024/01/24 11:27:33;;;;;;;26.58;4.40;;;10.80;99.90;;;;;;4948717;28;20138;-74
2024/01/24 11:30:28;;;;;;;18.95;3.30;;;10.80;99.90;;;;;;4950164;28;20134;-73
2024/01/24 11:32:57;;;;;;;26.83;4.30;;;10.80;99.90;;;;;;4942085;28;20038;-74
2024/01/24 11:35:31;;;;;;;18.73;3.42;;;10.80;99.90;;;;;;4980535;28;20074;-73
2024/01/24 11:38:03;;;;;;;24.48;3.33;;;10.80;99.90;;;;;;4975169;28;20062;-74
2024/01/24 11:40:34;;;;;;;23.30;4.25;;;10.90;99.90;;;;;;4967669;28;20031;-74
2024/01/24 11:43:00;;;;;;;17.00;3.78;;;10.90;99.90;;;;;;4956936;28;20073;-74
2024/01/24 11:45:25;;;;;;;29.55;4.32;;;10.80;99.90;;;;;;4948693;28;20160;-74
2024/01/24 11:47:52;;;;;;;23.25;3.67;;;10.70;99.90;;;;;;4967450;28;20121;-74
2024/01/24 11:50:19;;;;;;;29.90;3.97;;;10.70;99.90;;;;;;4959530;28;20070;-74
2024/01/24 11:52:45;;;;;;;14.27;3.45;;;10.80;99.90;;;;;;4966522;28;20089;-74
2024/01/24 11:55:11;;;;;;;13.48;2.83;;;10.90;99.90;;;;;;4978029;28;20037;-75
2024/01/24 11:57:37;;;;;;;18.58;2.60;;;10.90;99.90;;;;;;4974221;28;20858;-73
2024/01/24 12:00:06;;;;;;;29.05;3.33;;;11.00;99.90;;;;;;4978141;28;20061;-75
2024/01/24 12:02:32;;;;;;;14.00;2.35;;;11.10;99.90;;;;;;4967251;28;20084;-74
2024/01/24 12:04:57;;;;;;;13.77;2.83;;;11.20;99.90;;;;;;4974432;28;20030;-74
2024/01/24 12:07:23;;;;;;;20.38;3.10;;;11.10;99.90;;;;;;4957252;28;20514;-74
2024/01/24 12:09:50;;;;;;;15.88;3.58;;;11.20;99.90;;;;;;4980230;28;20035;-74
2024/01/24 12:12:16;;;;;;;19.65;3.28;;;11.20;99.90;;;;;;4957033;28;20039;-76
2024/01/24 12:14:42;;;;;;;18.58;3.25;;;11.30;99.90;;;;;;4980565;28;20041;-74
2024/01/24 12:17:08;;;;;;;14.43;2.17;;;11.30;99.90;;;;;;4962581;28;20031;-75
2024/01/24 12:19:35;;;;;;;13.73;2.67;;;11.30;99.90;;;;;;4959793;28;20046;-73
2024/01/24 12:22:02;;;;;;;13.77;3.42;;;11.30;99.90;;;;;;4955839;28;20100;-75
2024/01/24 12:24:28;;;;;;;14.15;3.00;;;11.30;99.90;;;;;;4973774;28;20073;-76
2024/01/24 12:26:53;;;;;;;13.57;2.70;;;11.30;99.90;;;;;;4962508;28;20061;-73
2024/01/24 12:29:21;;;;;;;21.48;2.88;;;11.30;99.90;;;;;;4980310;28;20105;-75
2024/01/24 12:31:48;;;;;;;18.05;3.20;;;11.20;99.90;;;;;;4971861;28;20129;-73
2024/01/24 12:34:13;;;;;;;25.85;3.45;;;11.20;99.90;;;;;;4961376;28;20054;-73
2024/01/24 12:36:45;;;;;;;19.10;3.35;;;11.20;99.90;;;;;;4980057;28;20027;-73